Saturday, January 19, 2019, 8:46 PM EST
Back to Local

KBML, Berlin Municipal Airport

Location: Milan, NH, United States Lat: 44.583
Local Time: 8:46 PM EST ( 1:46 GMT) Lon: -71.183
Time Zone: US/Eastern Elev: 1158 ft

Show me the last for .
Show Decoded

2019-01-19 20:35 METAR KBML 200135Z AUTO 00000KT 2SM -SN BR OVC029 M13/M15 A3019 RMK AO2 P0000
                 T11281150 =
2019-01-19 19:52 METAR KBML 200052Z AUTO 00000KT 2 1/2SM -SN BR OVC035 M13/M15 A3020 RMK AO2
                 SLP257 P0000 T11281150 =
2019-01-19 19:26 METAR KBML 200026Z AUTO 33003KT 2 1/2SM -SN BR OVC037 M13/M15 A3020 RMK AO2
                 P0000 T11281150 =
2019-01-19 19:04 METAR KBML 200004Z AUTO 34003KT 3SM -SN BR OVC037 M13/M15 A3020 RMK AO2 P0000
                 T11281150 =
2019-01-19 18:52 METAR KBML 192352Z AUTO 32003KT 2 1/2SM -SN BR OVC033 M13/M15 A3020 RMK AO2
                 SLP257 P0001 60003 T11281150 11106 21128 58011 =
2019-01-19 18:41 METAR KBML 192341Z AUTO 00000KT 2SM -SN BR OVC027 M13/M15 A3020 RMK AO2 P0001
                 T11281150 =
2019-01-19 18:27 METAR KBML 192327Z AUTO 00000KT 1 3/4SM -SN BR OVC021 M13/M15 A3020 RMK AO2
                 P0001 T11281150 =
2019-01-19 18:17 METAR KBML 192317Z AUTO 00000KT 1 1/4SM -SN BR OVC017 M13/M15 A3021 RMK AO2
                 P0001 T11281150 =
2019-01-19 17:52 METAR KBML 192252Z AUTO 32003KT 1SM -SN BR VV014 M13/M15 A3022 RMK AO2 SLP262
                 P0002 T11281150 =
2019-01-19 17:09 METAR KBML 192209Z AUTO 34003KT 1SM -SN VV019 M12/M15 A3023 RMK AO2 P0000
                 T11221150 =
2019-01-19 16:52 METAR KBML 192152Z AUTO 36003KT 1 3/4SM -SN OVC024 M12/M15 A3023 RMK AO2 SNB2055
                 SLP267 P0000 T11221150 =
2019-01-19 16:45 METAR KBML 192145Z AUTO 36004KT 1 3/4SM -SN OVC024 M12/M15 A3023 RMK AO2 SNB2055
                 P0000 T11221150 =
2019-01-19 16:19 METAR KBML 192119Z AUTO 00000KT 1SM -SN OVC022 M12/M16 A3023 RMK AO2 SNB2055
                 P0000 T11171161 =
2019-01-19 16:11 METAR KBML 192111Z AUTO 00000KT 1 1/2SM -SN OVC024 M12/M17 A3024 RMK AO2 VIS 1V3
                 SNB2055 P0000 T11171172 =
2019-01-19 16:04 METAR KBML 192104Z AUTO 00000KT 2SM -SN OVC028 M11/M18 A3024 RMK AO2 SNB2055
                 P0000 T11111183 =
2019-01-19 15:52 METAR KBML 192052Z AUTO 36004KT 9SM OVC038 M11/M19 A3024 RMK AO2 SLP265
                 T11111194 53004 =
2019-01-19 14:52 METAR KBML 191952Z AUTO 34003KT 10SM OVC060 M11/M22 A3021 RMK AO2 SLP256
                 T11061217 =
2019-01-19 13:52 METAR KBML 191852Z AUTO 34003KT 10SM OVC080 M11/M22 A3020 RMK AO2 SLP252
                 T11111217 =
2019-01-19 12:52 METAR KBML 191752Z AUTO 34003KT 10SM OVC085 M11/M21 A3022 RMK AO2 SLP259
                 T11111211 11111 21172 58022 =
2019-01-19 11:52 METAR KBML 191652Z AUTO 34003KT 10SM OVC095 M12/M21 A3027 RMK AO2 SLP275
                 T11221206 =
2019-01-19 10:52 METAR KBML 191552Z AUTO 00000KT 10SM OVC100 M13/M21 A3029 RMK AO2 SLP283
                 T11331206 =
2019-01-19 09:52 METAR KBML 191452Z AUTO 02003KT 10SM BKN110 M15/M21 A3029 RMK AO2 SLP282
                 T11501206 51021 =
2019-01-19 08:52 METAR KBML 191352Z AUTO 35005KT 10SM CLR M17/M21 A3028 RMK AO2 SLP280 T11671211
                 =
2019-01-19 07:52 METAR KBML 191252Z AUTO 34003KT 10SM CLR M17/M21 A3026 RMK AO2 SLP271 T11671211
                 =
2019-01-19 06:52 METAR KBML 191152Z AUTO 35004KT 10SM CLR M16/M21 A3022 RMK AO2 SLP259 T11611206
                 11078 21161 53025 =
2019-01-19 05:52 METAR KBML 191052Z AUTO 32004KT 10SM CLR M15/M19 A3020 RMK AO2 SLP250 T11501189
                 =
2019-01-19 04:52 METAR KBML 190952Z AUTO 35006KT 10SM SCT021 M13/M17 A3017 RMK AO2 SLP239
                 T11331172 =
2019-01-19 03:52 METAR KBML 190852Z AUTO 00000KT 10SM OVC025 M12/M16 A3015 RMK AO2 SLP230
                 T11171156 53024 =
2019-01-19 02:52 METAR KBML 190752Z AUTO 36004KT 10SM BKN023 OVC028 M11/M15 A3012 RMK AO2 SLP222
                 T11111150 =
2019-01-19 02:04 METAR KBML 190704Z AUTO 34005KT 10SM BKN028 M09/M14 A3010 RMK AO2 T10941144 =
2019-01-19 01:52 METAR KBML 190652Z AUTO 31003KT 10SM FEW029 SCT047 M09/M14 A3009 RMK AO2 SLP211
                 T10941144 =
2019-01-19 00:52 METAR KBML 190552Z AUTO 28003KT 10SM OVC044 M08/M13 A3007 RMK AO2 SLP204 60000
                 T10781128 11022 21078 51016 =
2019-01-18 23:52 METAR KBML 190452Z AUTO 29004KT 10SM OVC047 M07/M13 A3006 RMK AO2 SLP198
                 T10671128 410171172 =
2019-01-18 22:52 METAR KBML 190352Z AUTO 33009G17KT 10SM SCT028 BKN033 OVC050 M06/M12 A3004 RMK
                 AO2 SLP195 T10611122 =
2019-01-18 21:52 METAR KBML 190252Z AUTO 31007KT 10SM BKN026 BKN032 OVC055 M04/M09 A3003 RMK AO2
                 SLP190 60000 T10441094 51018 =
2019-01-18 20:52 METAR KBML 190152Z AUTO 28007KT 240V330 10SM OVC055 M03/M08 A2997 RMK AO2 SNE17
                 SLP172 P0000 T10331083 =

Support USWX by starting your Amazon purchase here.